Time;durP1;ratioP1;P1;durP2;ratioP2;P2;SDS_P1;SDS_P2;PMS_P1;PMS_P2;Temp;Humidity;BMP_temperature;BMP_pressure;BME280_temperature;BME280_humidity;BME280_pressure;Samples;Min_cycle;Max_cycle;Signal;HPM_P1;HPM_P2
2023/06/03 00:02:12;;;;;;;4.47;2.50;;;11.20;99.90;;;;;;5055565;28;20679;-80
2023/06/03 00:04:41;;;;;;;2.70;2.43;;;11.10;1.00;;;;;;5045538;28;20186;-80
2023/06/03 00:07:07;;;;;;;3.60;2.50;;;11.20;99.90;;;;;;5061036;28;20206;-80
2023/06/03 00:09:33;;;;;;;3.80;2.77;;;11.30;97.40;;;;;;5060649;28;20174;-80
2023/06/03 00:11:59;;;;;;;5.20;2.87;;;11.50;1.00;;;;;;5061192;28;20232;-80
2023/06/03 00:14:25;;;;;;;4.67;2.77;;;11.60;1.00;;;;;;5061157;28;20194;-80
2023/06/03 00:16:52;;;;;;;4.53;2.80;;;11.70;99.90;;;;;;5063234;28;20215;-80
2023/06/03 00:19:18;;;;;;;4.57;3.00;;;11.70;99.90;;;;;;5061236;28;20189;-81
2023/06/03 00:21:50;;;;;;;4.53;2.90;;;11.70;99.90;;;;;;5061334;28;20178;-80
2023/06/03 00:24:19;;;;;;;4.43;2.90;;;11.80;99.90;;;;;;5062197;28;20684;-80
2023/06/03 00:26:45;;;;;;;4.57;2.80;;;11.70;1.00;;;;;;5053647;28;20197;-82
2023/06/03 00:29:11;;;;;;;4.47;2.80;;;11.60;1.00;;;;;;5061017;28;20205;-80
2023/06/03 00:31:36;;;;;;;3.40;2.73;;;11.50;1.00;;;;;;5063811;28;20189;-79
2023/06/03 00:34:02;;;;;;;6.17;2.70;;;11.50;1.00;;;;;;5056957;28;20186;-80
2023/06/03 00:36:27;;;;;;;5.20;2.60;;;11.30;99.90;;;;;;5044823;28;20170;-80
2023/06/03 00:38:53;;;;;;;4.07;2.83;;;11.30;1.00;;;;;;5044669;28;20173;-80
2023/06/03 00:41:19;;;;;;;5.17;2.80;;;11.30;1.00;;;;;;5045206;28;20181;-80
2023/06/03 00:43:45;;;;;;;5.17;2.97;;;11.20;1.00;;;;;;5064181;28;20174;-80
2023/06/03 00:46:11;;;;;;;5.10;3.00;;;11.20;50.80;;;;;;5078227;23;20221;-76
2023/06/03 00:48:38;;;;;;;6.30;2.63;;;11.00;99.90;;;;;;5060588;28;20197;-76
2023/06/03 00:51:05;;;;;;;4.93;3.30;;;10.90;1.00;;;;;;5061876;28;20235;-76
2023/06/03 00:53:31;;;;;;;4.67;3.30;;;10.90;1.00;;;;;;5060531;28;20656;-76
2023/06/03 00:55:56;;;;;;;3.90;2.90;;;10.90;1.00;;;;;;5062305;28;20186;-76
2023/06/03 00:58:22;;;;;;;6.30;2.80;;;11.00;7.00;;;;;;5060879;28;20599;-77
2023/06/03 01:00:48;;;;;;;4.77;2.70;;;11.00;99.90;;;;;;5059881;28;20223;-76
2023/06/03 01:03:14;;;;;;;5.13;2.87;;;10.90;99.90;;;;;;5059975;28;20177;-76
2023/06/03 01:05:42;;;;;;;5.30;3.03;;;10.80;1.00;;;;;;5062152;28;20213;-76
2023/06/03 01:08:43;;;;;;;6.00;2.60;;;10.80;1.00;;;;;;5060971;28;20660;-78
2023/06/03 01:11:24;;;;;;;4.47;2.60;;;10.80;1.00;;;;;;5060414;28;20217;-78
2023/06/03 01:14:28;;;;;;;3.90;3.30;;;10.70;99.90;;;;;;5060832;28;20173;-78
2023/06/03 01:16:55;;;;;;;5.10;3.03;;;10.40;99.90;;;;;;5057962;28;20185;-78
2023/06/03 01:19:38;;;;;;;4.50;2.90;;;10.20;1.00;;;;;;5061413;28;20178;-80
2023/06/03 01:22:11;;;;;;;4.60;2.77;;;10.30;1.00;;;;;;5061714;28;20258;-79
2023/06/03 01:24:37;;;;;;;5.27;2.93;;;10.30;98.80;;;;;;5051978;28;20202;-79
2023/06/03 01:27:03;;;;;;;7.33;2.63;;;10.40;32.70;;;;;;5059651;28;20205;-78
2023/06/03 01:29:29;;;;;;;3.47;3.10;;;10.50;1.00;;;;;;5059536;28;20255;-78
2023/06/03 01:31:58;;;;;;;4.77;2.80;;;10.50;1.00;;;;;;5059865;28;20177;-78
2023/06/03 01:34:24;;;;;;;3.30;2.90;;;10.40;99.90;;;;;;5059386;28;20177;-79
2023/06/03 01:36:50;;;;;;;4.33;3.10;;;10.50;1.00;;;;;;5059739;28;20681;-78
2023/06/03 01:39:16;;;;;;;5.37;2.90;;;10.60;99.90;;;;;;5059586;28;20270;-79
2023/06/03 01:41:44;;;;;;;3.77;2.93;;;10.70;99.90;;;;;;5058812;28;20667;-78
2023/06/03 01:44:10;;;;;;;4.43;3.00;;;10.60;99.90;;;;;;5060618;28;20177;-78
2023/06/03 01:46:35;;;;;;;3.93;2.90;;;10.50;99.90;;;;;;5058561;28;20312;-78
2023/06/03 01:49:08;;;;;;;5.03;3.00;;;10.50;90.40;;;;;;5059700;28;20169;-78
2023/06/03 01:51:33;;;;;;;6.90;3.17;;;10.40;1.00;;;;;;5058976;28;20173;-78
2023/06/03 01:53:59;;;;;;;4.80;2.57;;;10.40;99.90;;;;;;5059912;28;20201;-78
2023/06/03 01:56:25;;;;;;;4.30;2.60;;;10.10;99.90;;;;;;5061355;28;20205;-78
2023/06/03 01:58:51;;;;;;;3.60;2.67;;;10.20;1.00;;;;;;5059961;28;20200;-78
2023/06/03 02:01:17;;;;;;;3.70;2.57;;;10.10;99.90;;;;;;5059520;28;20174;-79
2023/06/03 02:03:42;;;;;;;3.97;2.60;;;10.30;1.00;;;;;;5060535;28;20577;-78
2023/06/03 02:06:08;;;;;;;4.83;2.40;;;10.20;1.00;;;;;;5060708;28;20228;-78
2023/06/03 02:08:36;;;;;;;4.93;2.60;;;10.20;99.90;;;;;;5061730;28;20524;-78
2023/06/03 02:11:02;;;;;;;3.13;2.40;;;10.00;1.00;;;;;;5063080;28;20647;-79
2023/06/03 02:13:27;;;;;;;5.77;2.53;;;10.00;64.50;;;;;;5063562;28;20259;-78
2023/06/03 02:15:53;;;;;;;3.60;2.33;;;9.90;99.90;;;;;;5063557;28;20197;-78
2023/06/03 02:18:18;;;;;;;3.50;2.30;;;10.00;1.00;;;;;;5063887;28;20536;-78
2023/06/03 02:20:45;;;;;;;3.50;2.40;;;10.00;1.00;;;;;;5062021;28;20178;-78
2023/06/03 02:23:11;;;;;;;4.80;2.70;;;9.90;1.00;;;;;;5064988;28;20219;-78
2023/06/03 02:25:36;;;;;;;5.23;2.33;;;9.90;99.90;;;;;;5062161;28;20205;-78
2023/06/03 02:28:06;;;;;;;3.27;2.70;;;9.90;1.00;;;;;;5063336;28;20173;-78
2023/06/03 02:30:31;;;;;;;3.60;2.50;;;10.00;99.90;;;;;;5063040;28;20174;-78
2023/06/03 02:32:57;;;;;;;3.03;2.40;;;10.00;1.00;;;;;;5063703;28;20199;-78
2023/06/03 02:35:23;;;;;;;3.70;2.23;;;10.00;1.00;;;;;;5063700;28;20186;-78
2023/06/03 02:37:48;;;;;;;3.97;2.20;;;10.00;99.90;;;;;;5064102;28;20180;-78
2023/06/03 02:40:14;;;;;;;2.93;2.00;;;9.90;1.00;;;;;;5062483;28;20233;-78
2023/06/03 02:42:39;;;;;;;4.93;2.40;;;10.00;99.90;;;;;;5063603;28;20181;-78
2023/06/03 02:45:07;;;;;;;4.83;2.10;;;9.90;1.00;;;;;;5063051;28;20319;-78
2023/06/03 02:47:33;;;;;;;5.80;2.40;;;9.80;1.00;;;;;;5063145;28;20181;-79
2023/06/03 02:49:58;;;;;;;4.53;2.30;;;9.90;99.90;;;;;;5062059;28;20200;-78
2023/06/03 02:52:24;;;;;;;3.57;2.03;;;9.90;1.00;;;;;;5062171;28;20217;-78
2023/06/03 02:54:50;;;;;;;2.70;2.10;;;9.90;62.70;;;;;;5062968;28;20186;-78
2023/06/03 02:57:15;;;;;;;3.43;2.00;;;9.80;99.90;;;;;;5062393;28;20246;-78
2023/06/03 02:59:42;;;;;;;3.60;1.83;;;10.00;99.90;;;;;;5063195;28;20182;-78
2023/06/03 03:02:08;;;;;;;2.33;1.70;;;9.90;99.90;;;;;;5063124;28;20196;-78
2023/06/03 03:04:36;;;;;;;3.80;1.87;;;9.90;1.00;;;;;;5062218;28;20170;-79
2023/06/03 03:07:08;;;;;;;4.70;1.97;;;9.70;1.00;;;;;;5062301;28;20268;-78
2023/06/03 03:09:34;;;;;;;2.73;1.90;;;9.80;99.90;;;;;;5061716;28;20188;-78
2023/06/03 03:12:00;;;;;;;2.50;1.90;;;9.70;99.90;;;;;;5062735;28;20174;-78
2023/06/03 03:14:26;;;;;;;3.43;2.03;;;9.70;99.90;;;;;;5063059;28;20262;-78
2023/06/03 03:16:52;;;;;;;2.50;1.77;;;9.80;4.70;;;;;;5063559;28;20187;-78
2023/06/03 03:19:18;;;;;;;2.10;1.90;;;9.70;1.00;;;;;;5062484;28;20260;-78
2023/06/03 03:21:44;;;;;;;4.00;1.80;;;9.60;1.00;;;;;;5060781;28;20174;-78
2023/06/03 03:24:10;;;;;;;2.17;1.73;;;9.60;99.90;;;;;;5062575;28;20656;-78
2023/06/03 03:26:36;;;;;;;3.17;1.80;;;9.70;99.90;;;;;;5061971;28;20201;-78
2023/06/03 03:29:02;;;;;;;3.10;1.70;;;9.70;28.30;;;;;;5061793;28;20189;-78
2023/06/03 03:31:29;;;;;;;2.60;1.63;;;9.50;99.90;;;;;;5062251;28;20176;-78
2023/06/03 03:33:55;;;;;;;2.97;1.80;;;9.50;99.90;;;;;;5062375;28;20563;-78
2023/06/03 03:36:22;;;;;;;3.03;1.87;;;9.30;99.90;;;;;;5061215;28;20189;-79
2023/06/03 03:39:03;;;;;;;1.70;1.50;;;9.20;1.00;;;;;;5061002;28;20189;-78
2023/06/03 03:41:30;;;;;;;4.77;1.80;;;9.40;1.00;;;;;;5060478;28;20186;-79
2023/06/03 03:43:56;;;;;;;1.77;1.60;;;9.20;1.00;;;;;;5060844;28;20187;-78
2023/06/03 03:46:22;;;;;;;2.47;1.63;;;9.40;1.00;;;;;;5060872;28;20214;-78
2023/06/03 03:48:47;;;;;;;2.57;1.90;;;9.20;99.90;;;;;;5062279;28;20162;-78
2023/06/03 03:51:14;;;;;;;4.27;1.70;;;9.20;1.00;;;;;;5060749;28;20170;-78
2023/06/03 03:53:46;;;;;;;2.17;1.60;;;9.10;99.90;;;;;;5062180;28;20166;-79
2023/06/03 03:56:20;;;;;;;2.43;1.97;;;9.10;1.00;;;;;;5060272;28;20220;-78
2023/06/03 03:58:49;;;;;;;3.20;1.70;;;9.10;1.00;;;;;;5061680;28;20181;-78
2023/06/03 04:01:21;;;;;;;2.90;1.80;;;9.20;1.00;;;;;;5060024;28;20180;-78
2023/06/03 04:03:49;;;;;;;2.43;1.60;;;9.10;1.00;;;;;;5060553;28;20177;-78
2023/06/03 04:06:36;;;;;;;2.10;1.50;;;9.10;99.90;;;;;;5061842;28;20212;-78
2023/06/03 04:09:03;;;;;;;3.30;1.43;;;9.10;99.90;;;;;;5061676;28;20173;-78
2023/06/03 04:11:29;;;;;;;2.07;1.50;;;9.00;99.90;;;;;;5060267;28;20173;-78
2023/06/03 04:14:00;;;;;;;1.90;1.50;;;9.10;1.00;;;;;;5061667;28;20172;-78
2023/06/03 04:16:46;;;;;;;3.60;1.60;;;9.20;1.00;;;;;;5059890;28;20208;-78
2023/06/03 04:19:19;;;;;;;2.60;1.30;;;9.20;99.90;;;;;;5059574;28;20188;-78
2023/06/03 04:21:45;;;;;;;2.33;1.37;;;9.00;1.00;;;;;;5060145;28;20176;-78
2023/06/03 04:24:11;;;;;;;3.27;1.40;;;9.10;1.00;;;;;;5058984;28;20562;-78
2023/06/03 04:26:38;;;;;;;1.67;1.40;;;9.30;1.00;;;;;;5059552;28;20209;-78
2023/06/03 04:29:04;;;;;;;1.93;1.30;;;9.20;99.90;;;;;;5059503;28;20175;-77
2023/06/03 04:31:30;;;;;;;1.40;1.23;;;9.30;1.00;;;;;;5059611;28;20215;-77
2023/06/03 04:33:55;;;;;;;2.83;1.47;;;9.50;99.90;;;;;;5060234;28;20169;-78
2023/06/03 04:36:21;;;;;;;2.00;1.43;;;9.60;97.30;;;;;;5058674;28;20193;-79
2023/06/03 04:38:47;;;;;;;2.20;1.37;;;9.70;49.70;;;;;;5059028;28;20182;-78
2023/06/03 04:41:14;;;;;;;2.63;1.40;;;9.60;1.00;;;;;;5059134;28;20230;-78
2023/06/03 04:43:43;;;;;;;2.80;1.50;;;9.80;99.90;;;;;;5061404;28;20178;-78
2023/06/03 04:46:10;;;;;;;2.80;1.30;;;9.90;99.90;;;;;;5061215;28;20216;-77
2023/06/03 04:48:45;;;;;;;2.33;1.10;;;9.80;99.90;;;;;;5058931;28;20212;-78
2023/06/03 04:51:11;;;;;;;1.77;1.30;;;10.00;99.90;;;;;;5058446;28;20238;-78
2023/06/03 04:53:37;;;;;;;3.43;1.30;;;10.10;99.90;;;;;;5059293;28;20259;-78
2023/06/03 04:56:05;;;;;;;3.03;1.23;;;10.20;99.90;;;;;;5059093;28;20240;-78
2023/06/03 04:58:31;;;;;;;2.83;1.23;;;10.20;99.90;;;;;;5059342;28;20223;-77
2023/06/03 05:00:56;;;;;;;3.43;1.20;;;10.30;99.90;;;;;;5058478;28;20271;-79
2023/06/03 05:03:22;;;;;;;2.83;1.60;;;10.30;99.90;;;;;;5058757;28;20181;-78
2023/06/03 05:05:48;;;;;;;3.30;1.50;;;10.40;1.00;;;;;;5058974;28;20233;-78
2023/06/03 05:08:15;;;;;;;1.73;1.23;;;10.40;99.90;;;;;;5058909;28;20187;-78
2023/06/03 05:10:40;;;;;;;3.10;1.60;;;10.40;1.00;;;;;;5057562;28;20169;-81
2023/06/03 05:13:06;;;;;;;2.70;1.20;;;10.50;99.90;;;;;;5058801;28;20185;-80
2023/06/03 05:15:33;;;;;;;2.10;1.10;;;10.60;99.90;;;;;;5057869;28;20272;-79
2023/06/03 05:18:01;;;;;;;1.63;1.27;;;10.50;1.00;;;;;;5060160;28;20170;-81
2023/06/03 05:20:28;;;;;;;1.50;1.20;;;10.60;99.90;;;;;;5057122;28;20173;-80
2023/06/03 05:22:54;;;;;;;3.03;1.10;;;10.80;99.90;;;;;;5058850;28;20223;-79
2023/06/03 05:25:20;;;;;;;1.83;1.20;;;10.90;1.00;;;;;;5057134;28;20193;-80
2023/06/03 05:27:45;;;;;;;2.63;1.30;;;10.90;34.00;;;;;;5057666;28;20524;-79
2023/06/03 05:30:11;;;;;;;4.20;1.20;;;11.00;99.90;;;;;;5057780;28;20173;-81
2023/06/03 05:32:39;;;;;;;1.80;1.20;;;11.00;1.00;;;;;;5059123;28;20182;-79
2023/06/03 05:35:05;;;;;;;2.10;1.30;;;11.10;1.00;;;;;;5056164;28;20200;-79
2023/06/03 05:37:31;;;;;;;2.70;1.37;;;11.30;1.00;;;;;;5053754;28;20170;-78
2023/06/03 05:39:56;;;;;;;5.13;1.27;;;11.50;99.90;;;;;;5053264;28;20177;-79
2023/06/03 05:42:22;;;;;;;2.83;1.20;;;11.60;99.90;;;;;;5055187;28;20528;-78
2023/06/03 05:44:47;;;;;;;2.83;1.33;;;11.50;99.90;;;;;;5052987;28;20212;-78
2023/06/03 05:47:13;;;;;;;1.90;1.40;;;11.60;99.90;;;;;;5053174;28;20216;-78
2023/06/03 05:49:38;;;;;;;2.40;1.20;;;11.60;99.90;;;;;;5052107;28;20268;-79
2023/06/03 05:52:04;;;;;;;1.93;1.20;;;11.60;99.90;;;;;;5055056;28;20237;-79
2023/06/03 05:54:30;;;;;;;1.80;1.40;;;11.70;23.90;;;;;;5056906;28;20223;-78
2023/06/03 05:56:56;;;;;;;1.53;1.20;;;11.80;1.00;;;;;;5061338;28;20182;-77
2023/06/03 05:59:22;;;;;;;4.53;1.20;;;11.80;91.00;;;;;;5060089;28;20310;-77
2023/06/03 06:01:48;;;;;;;1.63;1.20;;;11.90;99.90;;;;;;5057752;28;20192;-78
2023/06/03 06:04:13;;;;;;;1.47;1.20;;;12.00;26.60;;;;;;5060540;28;20182;-77
2023/06/03 06:06:39;;;;;;;3.07;1.33;;;12.10;1.00;;;;;;5051932;28;20209;-78
2023/06/03 06:09:05;;;;;;;1.63;1.10;;;12.20;1.00;;;;;;5051679;28;20554;-78
2023/06/03 06:11:30;;;;;;;2.13;1.20;;;12.30;1.00;;;;;;5051190;28;20174;-77
2023/06/03 06:13:56;;;;;;;2.20;1.43;;;12.40;1.00;;;;;;5053743;28;20185;-78
2023/06/03 06:16:21;;;;;;;1.67;1.27;;;12.40;1.00;;;;;;5055372;28;20197;-79
2023/06/03 06:18:48;;;;;;;1.37;1.20;;;12.50;99.90;;;;;;5058024;28;20177;-78
2023/06/03 06:21:15;;;;;;;2.33;1.40;;;12.70;1.00;;;;;;5058768;28;20174;-79
2023/06/03 06:23:44;;;;;;;1.70;1.30;;;12.80;1.00;;;;;;5054557;28;20175;-80
2023/06/03 06:26:13;;;;;;;3.33;1.20;;;12.90;1.00;;;;;;5057574;28;20296;-79
2023/06/03 06:28:39;;;;;;;2.83;1.20;;;13.00;1.00;;;;;;5058139;28;20176;-79
2023/06/03 06:31:04;;;;;;;2.20;1.33;;;13.10;1.00;;;;;;5057592;28;20174;-79
2023/06/03 06:33:34;;;;;;;1.93;1.27;;;13.20;1.00;;;;;;5059488;28;20168;-79
2023/06/03 06:36:21;;;;;;;1.57;1.20;;;13.20;1.00;;;;;;5057594;28;20220;-79
2023/06/03 06:38:47;;;;;;;2.80;1.40;;;13.30;1.00;;;;;;5058871;28;20184;-79
2023/06/03 06:41:15;;;;;;;2.67;1.40;;;13.40;1.00;;;;;;5056427;28;20209;-79
2023/06/03 06:43:40;;;;;;;2.37;1.40;;;13.50;1.00;;;;;;5057588;28;20565;-81
2023/06/03 06:46:06;;;;;;;3.20;1.50;;;13.60;1.00;;;;;;5110681;23;20243;-80
2023/06/03 06:48:34;;;;;;;2.70;1.30;;;13.70;1.00;;;;;;5058459;28;20593;-81
2023/06/03 06:51:00;;;;;;;4.27;1.40;;;13.80;1.00;;;;;;5057520;28;20188;-81
2023/06/03 06:53:27;;;;;;;2.73;1.43;;;13.90;1.00;;;;;;5057504;28;20236;-81
2023/06/03 06:56:01;;;;;;;2.37;1.20;;;14.00;99.90;;;;;;5059918;28;20211;-82
2023/06/03 06:58:36;;;;;;;2.57;1.70;;;14.00;99.90;;;;;;5050890;28;20178;-81
2023/06/03 07:01:05;;;;;;;1.73;1.37;;;14.10;99.90;;;;;;5073401;28;20184;-81
2023/06/03 07:03:32;;;;;;;1.60;1.30;;;14.30;99.90;;;;;;5081335;28;20193;-81
2023/06/03 07:05:58;;;;;;;1.30;1.20;;;14.50;1.00;;;;;;5073097;28;20213;-83
2023/06/03 07:08:24;;;;;;;2.40;1.50;;;14.60;99.90;;;;;;5069122;28;20231;-81
2023/06/03 07:10:51;;;;;;;1.67;1.10;;;14.70;99.90;;;;;;5060111;28;20169;-77
2023/06/03 07:13:16;;;;;;;1.90;1.47;;;14.70;99.90;;;;;;5055660;28;20170;-79
2023/06/03 07:15:43;;;;;;;2.93;1.40;;;14.90;99.90;;;;;;5056499;28;20210;-79
2023/06/03 07:18:09;;;;;;;3.37;1.43;;;15.00;99.90;;;;;;5056175;28;20664;-79
2023/06/03 07:20:43;;;;;;;2.43;1.47;;;15.00;99.90;;;;;;5055037;28;20174;-79
2023/06/03 07:23:11;;;;;;;2.17;1.57;;;15.00;99.90;;;;;;5055202;28;20178;-79
2023/06/03 07:25:40;;;;;;;2.37;1.40;;;15.10;99.90;;;;;;5060414;28;20196;-79
2023/06/03 07:28:20;;;;;;;2.80;1.23;;;15.20;99.90;;;;;;5063261;28;20165;-79
2023/06/03 07:30:52;;;;;;;2.20;1.37;;;15.30;99.90;;;;;;5082363;28;20160;-79
2023/06/03 07:33:29;;;;;;;2.70;1.43;;;15.50;99.90;;;;;;5063909;28;20169;-80
2023/06/03 07:35:57;;;;;;;2.23;1.50;;;15.60;99.90;;;;;;5064183;28;20675;-79
2023/06/03 07:38:38;;;;;;;1.60;1.40;;;15.70;99.90;;;;;;5060691;28;20568;-80
2023/06/03 07:41:08;;;;;;;1.50;1.40;;;15.90;99.90;;;;;;5069879;28;20276;-80
2023/06/03 07:43:35;;;;;;;3.63;1.70;;;16.00;99.90;;;;;;5061759;28;20211;-80
2023/06/03 07:46:08;;;;;;;3.07;1.80;;;16.20;99.90;;;;;;5060718;28;20210;-80
2023/06/03 07:48:36;;;;;;;1.93;1.50;;;16.40;99.90;;;;;;5063495;28;20172;-80
2023/06/03 07:51:03;;;;;;;1.97;1.50;;;16.60;90.70;;;;;;5062772;28;20409;-80
2023/06/03 07:53:30;;;;;;;3.60;1.30;;;16.60;99.90;;;;;;5064515;28;20181;-80
2023/06/03 07:55:57;;;;;;;2.70;1.37;;;16.70;99.90;;;;;;5063145;28;20186;-80
2023/06/03 07:58:25;;;;;;;3.33;1.70;;;16.80;1.00;;;;;;5075284;28;20178;-80
2023/06/03 08:00:52;;;;;;;1.70;1.60;;;16.70;1.00;;;;;;5051623;28;20178;-80
2023/06/03 08:03:18;;;;;;;1.80;1.50;;;16.80;1.00;;;;;;5046257;28;20533;-82
2023/06/03 08:05:47;;;;;;;1.77;1.40;;;17.00;1.00;;;;;;5076880;28;20195;-80
2023/06/03 08:08:16;;;;;;;2.07;1.50;;;17.10;1.00;;;;;;5066265;28;20209;-81
2023/06/03 08:10:47;;;;;;;2.57;1.30;;;17.20;1.00;;;;;;5066370;28;20172;-80
2023/06/03 08:13:15;;;;;;;1.60;1.40;;;17.30;1.00;;;;;;5086060;28;20173;-81
2023/06/03 08:15:40;;;;;;;2.37;1.60;;;17.30;1.00;;;;;;5086016;28;20189;-81
2023/06/03 08:18:07;;;;;;;2.10;1.43;;;17.40;1.00;;;;;;5086552;28;20663;-80
2023/06/03 08:20:35;;;;;;;1.97;1.43;;;17.50;1.00;;;;;;5068845;28;20263;-80
2023/06/03 08:23:02;;;;;;;1.77;1.40;;;17.60;1.00;;;;;;5089004;28;20197;-82
2023/06/03 08:25:28;;;;;;;3.27;1.40;;;17.70;1.00;;;;;;5070752;28;20193;-80
2023/06/03 08:27:53;;;;;;;2.90;1.63;;;17.60;1.00;;;;;;5089473;28;20180;-81
2023/06/03 08:30:21;;;;;;;2.10;1.60;;;17.90;1.00;;;;;;5071103;28;20173;-81
2023/06/03 08:32:48;;;;;;;3.00;1.40;;;18.10;1.00;;;;;;5072736;28;20173;-82
2023/06/03 08:35:20;;;;;;;2.60;1.43;;;18.20;1.00;;;;;;5072847;28;20223;-81
2023/06/03 08:37:46;;;;;;;3.30;1.57;;;18.30;1.00;;;;;;5091243;28;20255;-80
2023/06/03 08:40:14;;;;;;;5.27;1.50;;;18.30;1.00;;;;;;5061869;28;20182;-80
2023/06/03 08:42:44;;;;;;;3.87;1.70;;;18.40;1.00;;;;;;5053891;28;20178;-80
2023/06/03 08:45:11;;;;;;;2.20;1.53;;;18.40;1.00;;;;;;5052538;28;20217;-80
2023/06/03 08:48:04;;;;;;;2.67;1.70;;;18.60;1.00;;;;;;5069881;28;20173;-80
2023/06/03 08:50:32;;;;;;;3.67;1.53;;;18.80;1.00;;;;;;5040238;28;20162;-79
2023/06/03 08:53:03;;;;;;;2.43;1.60;;;19.00;1.00;;;;;;5042776;28;20184;-80
2023/06/03 08:55:30;;;;;;;2.40;1.50;;;19.20;1.00;;;;;;5043793;28;20202;-80
2023/06/03 08:58:25;;;;;;;2.03;1.60;;;19.30;1.00;;;;;;5062954;28;20169;-80
2023/06/03 09:00:56;;;;;;;3.67;1.80;;;19.60;1.00;;;;;;5062232;28;20174;-79
2023/06/03 09:03:22;;;;;;;2.07;1.50;;;19.70;99.90;;;;;;5081953;28;20165;-80
2023/06/03 09:05:49;;;;;;;3.10;1.60;;;19.90;1.00;;;;;;5062933;28;20292;-80
2023/06/03 09:08:16;;;;;;;2.87;1.70;;;20.20;99.90;;;;;;5063679;28;20169;-80
2023/06/03 09:10:45;;;;;;;4.13;1.87;;;20.00;99.90;;;;;;5080011;28;20169;-80
2023/06/03 09:13:13;;;;;;;2.23;1.57;;;19.80;99.90;;;;;;5081980;28;20194;-80
2023/06/03 09:15:42;;;;;;;3.00;1.97;;;20.00;99.90;;;;;;5080664;28;20197;-80
2023/06/03 09:18:07;;;;;;;2.67;1.50;;;20.10;99.90;;;;;;5048747;28;20170;-80
2023/06/03 09:20:35;;;;;;;2.60;1.50;;;20.10;99.90;;;;;;5041586;28;20178;-79
2023/06/03 09:23:01;;;;;;;2.37;1.40;;;20.20;99.90;;;;;;5060177;28;20173;-81
2023/06/03 09:25:27;;;;;;;2.20;1.60;;;20.20;99.90;;;;;;5042363;28;20201;-80
2023/06/03 09:27:53;;;;;;;1.57;1.40;;;20.50;99.90;;;;;;5062428;28;20173;-80
2023/06/03 09:30:19;;;;;;;2.78;1.27;;;20.70;99.90;;;;;;5061157;28;20180;-81
2023/06/03 09:32:44;;;;;;;2.80;1.70;;;21.00;99.90;;;;;;5042936;28;20166;-82
2023/06/03 09:35:10;;;;;;;2.75;1.40;;;21.20;99.90;;;;;;5059472;28;20692;-82
2023/06/03 09:37:36;;;;;;;1.58;1.42;;;21.20;99.90;;;;;;5057462;28;20196;-83
2023/06/03 09:40:23;;;;;;;2.90;1.40;;;21.10;99.90;;;;;;5056687;28;20636;-82
2023/06/03 09:42:48;;;;;;;2.17;1.50;;;21.20;99.90;;;;;;5058447;28;20535;-82
2023/06/03 09:45:33;;;;;;;2.08;1.45;;;21.20;99.90;;;;;;5058810;28;20201;-83
2023/06/03 09:47:59;;;;;;;2.00;1.40;;;21.00;99.90;;;;;;5063413;28;20173;-83
2023/06/03 09:50:30;;;;;;;1.42;1.23;;;21.00;99.90;;;;;;5069668;28;20650;-82
2023/06/03 09:52:56;;;;;;;2.10;1.45;;;21.30;99.90;;;;;;5078197;28;20246;-83
2023/06/03 09:55:29;;;;;;;1.42;1.30;;;21.10;99.90;;;;;;5078552;28;20199;-83
2023/06/03 09:58:06;;;;;;;1.98;1.50;;;21.40;99.90;;;;;;5079115;28;20577;-83
2023/06/03 10:00:46;;;;;;;1.60;1.33;;;21.40;99.90;;;;;;5059951;28;20173;-83
2023/06/03 10:03:11;;;;;;;2.47;1.50;;;21.40;99.90;;;;;;5047472;28;20280;-82
2023/06/03 10:05:37;;;;;;;5.00;1.85;;;21.50;99.90;;;;;;5058351;28;20229;-83
2023/06/03 10:08:04;;;;;;;2.00;1.40;;;21.60;99.90;;;;;;5058921;28;20713;-83
2023/06/03 10:10:30;;;;;;;2.58;1.38;;;21.90;99.90;;;;;;5040299;28;20177;-82
2023/06/03 10:12:56;;;;;;;2.45;1.60;;;22.30;99.90;;;;;;5038547;28;20232;-81
2023/06/03 10:15:39;;;;;;;3.38;1.60;;;22.30;99.90;;;;;;5038662;28;20193;-83
2023/06/03 10:18:06;;;;;;;3.50;1.50;;;22.50;99.90;;;;;;5061947;28;20173;-81
2023/06/03 10:20:39;;;;;;;3.50;1.35;;;22.30;99.90;;;;;;5060780;28;20230;-82
2023/06/03 10:23:07;;;;;;;2.80;1.50;;;22.30;99.90;;;;;;5064084;28;20169;-83
2023/06/03 10:25:45;;;;;;;2.42;1.63;;;22.40;99.90;;;;;;5062701;28;20194;-82
2023/06/03 10:28:11;;;;;;;2.33;1.38;;;22.50;99.90;;;;;;5060749;28;20189;-83
2023/06/03 10:30:39;;;;;;;1.60;1.23;;;22.70;99.90;;;;;;5062841;28;20178;-83
2023/06/03 10:33:08;;;;;;;2.40;1.58;;;22.70;99.90;;;;;;5058120;28;20169;-82
2023/06/03 10:35:36;;;;;;;1.88;1.50;;;22.90;99.90;;;;;;5061916;28;20193;-85
2023/06/03 10:38:04;;;;;;;1.42;1.33;;;22.90;99.90;;;;;;5067203;28;20176;-83
2023/06/03 10:40:30;;;;;;;2.85;1.33;;;23.00;99.90;;;;;;5065442;28;20173;-85
2023/06/03 10:42:57;;;;;;;2.97;1.40;;;22.70;99.90;;;;;;5064988;28;20242;-84
2023/06/03 10:45:23;;;;;;;2.05;1.30;;;22.60;99.90;;;;;;5064854;28;20237;-84
2023/06/03 10:47:51;;;;;;;4.32;1.60;;;22.80;99.90;;;;;;5064425;28;20169;-83
2023/06/03 10:50:40;;;;;;;2.13;1.40;;;23.20;99.90;;;;;;5066149;28;20193;-84
2023/06/03 10:53:37;;;;;;;3.38;1.52;;;23.00;99.90;;;;;;5065991;28;20193;-83
2023/06/03 10:56:31;;;;;;;2.00;1.70;;;23.00;99.90;;;;;;5065417;28;20539;-82
2023/06/03 10:59:02;;;;;;;1.60;1.50;;;23.30;99.90;;;;;;5068076;28;20219;-84
2023/06/03 11:02:01;;;;;;;2.80;1.50;;;23.10;99.90;;;;;;5067080;28;20652;-83
2023/06/03 11:04:28;;;;;;;2.70;1.33;;;23.40;99.90;;;;;;5058152;28;20618;-83
2023/06/03 11:06:54;;;;;;;1.83;1.20;;;23.90;99.90;;;;;;5062163;28;20204;-84
2023/06/03 11:09:31;;;;;;;2.10;1.40;;;23.80;99.90;;;;;;5068881;28;20198;-83
2023/06/03 11:12:05;;;;;;;2.83;1.55;;;23.90;99.90;;;;;;5065692;28;20585;-82
2023/06/03 11:14:32;;;;;;;1.50;1.40;;;23.90;99.90;;;;;;5068671;28;20657;-84
2023/06/03 11:16:58;;;;;;;1.98;1.50;;;24.20;99.90;;;;;;5088516;28;20196;-83
2023/06/03 11:19:36;;;;;;;2.35;1.52;;;24.30;99.90;;;;;;5088103;28;20173;-83
2023/06/03 11:22:04;;;;;;;1.92;1.42;;;24.20;99.90;;;;;;5088967;28;20180;-83
2023/06/03 11:24:39;;;;;;;2.03;1.40;;;24.10;99.90;;;;;;5071333;28;20180;-85
2023/06/03 11:32:19;;;;;;;2.25;1.50;;;25.20;99.90;;;;;;5091612;28;20169;-85
2023/06/03 11:34:45;;;;;;;2.75;1.27;;;24.50;99.90;;;;;;5091816;28;20227;-85
2023/06/03 11:37:13;;;;;;;1.92;1.45;;;24.50;99.90;;;;;;5073119;28;20177;-84
2023/06/03 11:40:08;;;;;;;1.92;1.40;;;24.00;99.90;;;;;;5061036;28;20177;-83
2023/06/03 11:42:52;;;;;;;2.60;1.42;;;24.10;99.90;;;;;;5066550;28;20710;-83
2023/06/03 11:45:21;;;;;;;2.40;1.40;;;24.30;99.90;;;;;;5069847;28;20589;-83
2023/06/03 11:47:54;;;;;;;2.35;1.30;;;24.20;99.90;;;;;;5052477;28;20169;-84
2023/06/03 11:50:22;;;;;;;2.10;1.30;;;24.70;99.90;;;;;;5070140;28;20170;-84
2023/06/03 11:52:48;;;;;;;2.42;1.33;;;25.00;99.90;;;;;;5049629;28;20228;-84
2023/06/03 11:55:26;;;;;;;3.05;1.70;;;25.00;99.90;;;;;;5052600;28;20186;-83
2023/06/03 11:57:52;;;;;;;2.30;1.50;;;25.30;99.90;;;;;;5064926;28;20174;-83
2023/06/03 12:00:18;;;;;;;2.30;1.38;;;25.70;99.90;;;;;;5052132;28;20220;-85
2023/06/03 12:02:48;;;;;;;2.63;1.42;;;26.00;99.90;;;;;;5068103;28;20169;-84
2023/06/03 12:05:17;;;;;;;2.80;1.42;;;25.80;99.90;;;;;;5080197;28;20200;-84
2023/06/03 12:07:54;;;;;;;1.42;1.30;;;25.80;99.00;;;;;;5069359;28;20177;-83
2023/06/03 12:10:19;;;;;;;2.22;1.30;;;26.00;99.90;;;;;;5062310;28;20180;-84
2023/06/03 12:12:52;;;;;;;1.52;1.42;;;25.40;94.50;;;;;;5062677;28;20174;-83
2023/06/03 12:15:19;;;;;;;2.13;1.40;;;25.20;90.70;;;;;;5081398;28;20189;-83
2023/06/03 12:17:45;;;;;;;2.35;1.33;;;25.30;99.90;;;;;;5080966;28;20706;-83
2023/06/03 12:20:25;;;;;;;2.28;1.40;;;25.50;93.60;;;;;;5062307;28;20201;-83
2023/06/03 12:23:05;;;;;;;2.72;1.45;;;25.50;96.70;;;;;;5062080;28;20169;-84
2023/06/03 12:25:35;;;;;;;2.03;1.40;;;25.70;94.30;;;;;;5080295;28;20193;-84
2023/06/03 12:28:23;;;;;;;1.98;1.42;;;25.80;91.50;;;;;;5080535;28;20173;-83
2023/06/03 12:30:50;;;;;;;2.63;1.40;;;26.30;94.60;;;;;;5061293;28;20161;-84
2023/06/03 12:33:16;;;;;;;1.90;1.50;;;26.20;80.20;;;;;;5061958;28;20633;-84
2023/06/03 12:35:53;;;;;;;1.58;1.27;;;26.50;93.30;;;;;;5061622;28;20618;-84
2023/06/03 12:38:19;;;;;;;3.22;1.40;;;26.80;90.60;;;;;;5079771;28;20226;-84
2023/06/03 12:40:46;;;;;;;1.30;1.20;;;26.50;73.50;;;;;;5060596;28;20263;-84
2023/06/03 12:43:19;;;;;;;1.50;1.30;;;26.60;74.60;;;;;;5078746;28;20302;-83
2023/06/03 12:45:45;;;;;;;2.28;1.45;;;26.40;74.80;;;;;;5062870;28;20672;-84
2023/06/03 12:48:30;;;;;;;3.28;1.52;;;26.20;85.30;;;;;;5080471;28;20165;-84
2023/06/03 12:50:56;;;;;;;3.38;1.60;;;25.90;77.40;;;;;;5079666;28;20634;-84
2023/06/03 12:53:21;;;;;;;3.88;1.55;;;26.00;82.30;;;;;;5062218;28;20193;-85
2023/06/03 12:55:47;;;;;;;1.40;1.30;;;26.00;80.20;;;;;;5061278;28;20196;-84
2023/06/03 12:58:13;;;;;;;1.67;1.30;;;26.20;83.90;;;;;;5080178;28;20245;-83
2023/06/03 13:00:39;;;;;;;3.15;1.55;;;26.40;90.70;;;;;;5060901;28;20173;-83
2023/06/03 13:03:05;;;;;;;4.13;1.58;;;26.60;86.10;;;;;;5060150;28;20169;-84
2023/06/03 13:05:30;;;;;;;3.00;1.60;;;26.80;80.10;;;;;;5060637;28;20593;-83
2023/06/03 13:07:56;;;;;;;1.92;1.60;;;26.70;83.10;;;;;;5063175;28;20161;-83